Time;durP1;ratioP1;P1;durP2;ratioP2;P2;SDS_P1;SDS_P2;PMS_P1;PMS_P2;Temp;Humidity;BMP_temperature;BMP_pressure;BME280_temperature;BME280_humidity;BME280_pressure;Samples;Min_cycle;Max_cycle;Signal;HPM_P1;HPM_P2
2022/05/01 00:01:10;;;;;;;5.88;2.10;;;11.40;68.60;;;;;;5089769;28;20335;-60
2022/05/01 00:03:36;;;;;;;2.17;1.98;;;11.40;69.30;;;;;;5112551;28;20066;-61
2022/05/01 00:06:04;;;;;;;3.17;1.58;;;11.40;69.30;;;;;;5094350;28;20051;-61
2022/05/01 00:08:31;;;;;;;2.10;1.90;;;11.40;68.80;;;;;;5098290;28;20012;-60
2022/05/01 00:10:57;;;;;;;2.38;2.15;;;11.40;68.80;;;;;;5121635;28;20043;-61
2022/05/01 00:13:23;;;;;;;2.28;2.08;;;11.40;68.80;;;;;;5097191;28;20784;-61
2022/05/01 00:15:50;;;;;;;5.30;2.03;;;11.30;68.90;;;;;;5109371;28;20031;-60
2022/05/01 00:18:16;;;;;;;4.75;2.47;;;11.30;69.00;;;;;;5109155;28;20023;-61
2022/05/01 00:20:43;;;;;;;3.20;2.08;;;11.30;69.00;;;;;;5107510;28;20055;-61
2022/05/01 00:23:08;;;;;;;5.47;2.25;;;11.30;69.10;;;;;;5090389;28;20148;-61
2022/05/01 00:25:35;;;;;;;4.10;2.13;;;11.30;69.20;;;;;;5110439;28;20056;-61
2022/05/01 00:28:01;;;;;;;3.10;2.08;;;11.30;69.10;;;;;;5108572;28;20020;-61
2022/05/01 00:30:27;;;;;;;2.90;1.95;;;11.30;69.20;;;;;;5098331;28;20024;-61
2022/05/01 00:38:26;;;;;;;7.32;1.88;;;11.30;69.40;;;;;;5101672;28;20397;-61
2022/05/01 00:40:54;;;;;;;2.40;1.48;;;11.30;69.50;;;;;;5111257;27;20031;-61
2022/05/01 00:43:20;;;;;;;2.00;1.73;;;11.30;69.50;;;;;;5115324;27;20049;-60
2022/05/01 00:45:45;;;;;;;3.53;2.13;;;11.30;69.60;;;;;;5123505;27;20114;-61
2022/05/01 00:48:11;;;;;;;2.90;2.40;;;11.30;69.60;;;;;;5112571;27;20027;-61
2022/05/01 00:50:37;;;;;;;1.88;1.75;;;11.30;69.70;;;;;;5115484;27;20163;-59
2022/05/01 00:53:05;;;;;;;6.43;2.85;;;11.30;69.70;;;;;;5130525;27;20035;-60
2022/05/01 00:55:32;;;;;;;4.13;2.33;;;11.30;69.80;;;;;;5118363;27;20032;-59
2022/05/01 00:57:59;;;;;;;3.58;2.08;;;11.20;69.70;;;;;;5113939;27;20058;-59
2022/05/01 01:00:25;;;;;;;4.22;2.85;;;11.20;69.70;;;;;;5118155;27;20028;-59
2022/05/01 01:02:50;;;;;;;3.25;1.98;;;11.20;69.80;;;;;;5121389;27;20106;-59
2022/05/01 01:05:16;;;;;;;1.98;1.73;;;11.20;70.00;;;;;;5117123;27;20032;-60
2022/05/01 01:07:42;;;;;;;3.22;2.55;;;11.20;70.10;;;;;;5125530;27;20031;-59
2022/05/01 01:10:09;;;;;;;3.42;2.10;;;11.20;70.10;;;;;;5108261;27;20611;-60
2022/05/01 01:15:23;;;;;;;4.68;3.00;;;11.20;70.20;;;;;;5089949;28;20504;-59
2022/05/01 01:17:54;;;;;;;2.67;2.47;;;11.20;70.20;;;;;;5112402;28;20092;-59
2022/05/01 01:20:21;;;;;;;5.47;2.67;;;11.20;70.40;;;;;;5112996;27;20408;-59
2022/05/01 01:22:48;;;;;;;2.88;2.35;;;11.20;70.50;;;;;;5113370;27;20032;-59
2022/05/01 01:25:18;;;;;;;2.95;2.00;;;11.20;70.50;;;;;;5092722;28;20020;-61
2022/05/01 01:27:44;;;;;;;2.85;2.53;;;11.10;70.60;;;;;;5108847;28;20035;-60
2022/05/01 01:32:54;;;;;;;4.03;3.20;;;11.20;70.90;;;;;;5110634;28;20317;-60
2022/05/01 01:35:23;;;;;;;3.17;2.50;;;11.10;71.00;;;;;;5112266;27;20102;-61
2022/05/01 01:37:58;;;;;;;2.97;1.88;;;11.10;71.10;;;;;;5111116;28;20024;-60
2022/05/01 01:40:29;;;;;;;2.80;2.47;;;11.10;71.00;;;;;;5114958;27;20080;-60
2022/05/01 01:43:00;;;;;;;2.85;1.90;;;11.10;71.10;;;;;;5118481;27;20084;-60
2022/05/01 01:45:28;;;;;;;5.60;2.42;;;11.10;71.20;;;;;;5086685;28;20024;-60
2022/05/01 01:48:16;;;;;;;2.53;1.73;;;11.00;71.30;;;;;;5101818;28;20385;-60
2022/05/01 01:50:42;;;;;;;5.43;2.40;;;11.10;71.50;;;;;;5124159;27;20459;-61
2022/05/01 01:53:10;;;;;;;4.07;2.75;;;11.00;71.50;;;;;;5091900;28;20569;-60
2022/05/01 01:55:38;;;;;;;3.55;2.20;;;11.00;71.50;;;;;;5110276;28;20391;-61
2022/05/01 01:58:05;;;;;;;3.22;2.63;;;11.00;71.50;;;;;;5103720;27;20032;-60
2022/05/01 02:00:32;;;;;;;4.07;2.47;;;11.00;71.50;;;;;;5101661;28;20066;-61
2022/05/01 02:03:03;;;;;;;6.57;3.05;;;11.00;71.40;;;;;;5109296;28;20027;-60
2022/05/01 02:05:30;;;;;;;2.63;2.40;;;11.00;71.40;;;;;;5110936;28;20088;-60
2022/05/01 02:07:57;;;;;;;3.55;2.70;;;11.00;71.50;;;;;;5092903;28;20114;-60
2022/05/01 02:10:23;;;;;;;2.95;2.45;;;10.90;71.40;;;;;;5111236;27;20042;-61
2022/05/01 02:12:51;;;;;;;4.65;2.20;;;10.90;71.50;;;;;;5100911;28;20027;-60
2022/05/01 02:15:17;;;;;;;3.90;2.80;;;10.90;71.50;;;;;;5094694;28;20499;-60
2022/05/01 02:17:43;;;;;;;4.38;2.65;;;10.90;71.60;;;;;;5110756;28;20028;-61
2022/05/01 02:20:10;;;;;;;4.55;2.70;;;10.90;71.70;;;;;;5104471;27;20145;-60
2022/05/01 02:22:36;;;;;;;3.50;2.40;;;10.90;71.80;;;;;;5097250;27;20352;-60
2022/05/01 02:25:07;;;;;;;3.92;2.53;;;10.90;71.80;;;;;;5100272;28;20052;-61
2022/05/01 02:27:33;;;;;;;3.88;2.83;;;10.90;72.00;;;;;;5075951;28;20032;-59
2022/05/01 02:29:58;;;;;;;3.83;2.72;;;10.90;71.90;;;;;;5089344;28;20424;-60
2022/05/01 02:32:24;;;;;;;5.38;3.15;;;10.90;71.90;;;;;;5110749;28;20063;-60
2022/05/01 02:34:50;;;;;;;3.67;2.80;;;10.80;71.90;;;;;;5108767;27;20047;-60
2022/05/01 02:37:15;;;;;;;2.85;2.35;;;10.90;72.00;;;;;;5118456;27;20095;-60
2022/05/01 02:39:41;;;;;;;3.33;2.92;;;10.90;72.00;;;;;;5091728;27;20531;-60
2022/05/01 02:42:07;;;;;;;6.60;2.40;;;10.80;72.00;;;;;;5099154;28;20186;-60
2022/05/01 02:44:33;;;;;;;3.30;2.05;;;10.80;72.00;;;;;;5095464;28;20036;-61
2022/05/01 02:46:59;;;;;;;3.83;2.78;;;10.80;72.10;;;;;;5115337;27;20030;-60
2022/05/01 02:49:25;;;;;;;3.90;2.45;;;10.80;72.10;;;;;;5107569;28;20031;-60
2022/05/01 02:51:52;;;;;;;3.10;2.28;;;10.80;72.10;;;;;;5109221;28;20023;-60
2022/05/01 02:54:18;;;;;;;7.00;2.45;;;10.80;72.20;;;;;;5091646;28;20030;-60
2022/05/01 02:56:44;;;;;;;3.25;2.60;;;10.80;72.20;;;;;;5109738;28;20032;-61
2022/05/01 02:59:10;;;;;;;2.88;2.38;;;10.80;72.20;;;;;;5090835;28;20035;-61
2022/05/01 03:01:38;;;;;;;2.17;1.77;;;10.70;72.20;;;;;;5119725;27;20039;-60
2022/05/01 03:04:04;;;;;;;1.73;1.63;;;10.70;72.30;;;;;;5107871;28;20027;-60
2022/05/01 03:06:32;;;;;;;3.70;2.97;;;10.70;72.50;;;;;;5112579;27;20028;-59
2022/05/01 03:08:58;;;;;;;4.88;2.92;;;10.70;72.40;;;;;;5110078;28;20035;-59
2022/05/01 03:11:23;;;;;;;3.67;2.33;;;10.70;72.50;;;;;;5112996;27;20051;-59
2022/05/01 03:13:49;;;;;;;3.72;2.67;;;10.70;72.60;;;;;;5109197;28;20023;-58
2022/05/01 03:16:15;;;;;;;3.17;2.08;;;10.70;72.60;;;;;;5097690;28;20055;-59
2022/05/01 03:24:09;;;;;;;4.30;2.47;;;10.70;72.60;;;;;;5093402;28;20385;-59
2022/05/01 03:26:35;;;;;;;5.30;2.45;;;10.60;72.60;;;;;;5111601;27;20023;-58
2022/05/01 03:29:00;;;;;;;2.75;2.42;;;10.60;72.70;;;;;;5109443;28;20040;-59
2022/05/01 03:31:29;;;;;;;3.38;2.92;;;10.60;72.70;;;;;;5111487;27;20028;-59
2022/05/01 03:33:55;;;;;;;4.10;2.70;;;10.60;72.90;;;;;;5108933;28;20036;-59
2022/05/01 03:36:21;;;;;;;3.25;2.13;;;10.60;72.90;;;;;;5114212;27;20024;-59
2022/05/01 03:38:47;;;;;;;2.88;2.13;;;10.60;72.90;;;;;;5106941;28;20147;-58
2022/05/01 03:41:15;;;;;;;3.30;2.20;;;10.50;73.00;;;;;;5101229;28;20039;-59
2022/05/01 03:43:41;;;;;;;2.55;2.35;;;10.50;73.10;;;;;;5093432;28;20542;-61
2022/05/01 03:46:07;;;;;;;3.10;2.35;;;10.50;73.20;;;;;;5097787;28;20377;-61
2022/05/01 03:48:33;;;;;;;2.97;2.25;;;10.50;73.10;;;;;;5110191;28;20035;-60
2022/05/01 03:50:59;;;;;;;3.60;2.83;;;10.50;73.20;;;;;;5110488;27;20019;-59
2022/05/01 03:53:26;;;;;;;3.58;2.15;;;10.50;73.20;;;;;;5129587;27;20424;-58
2022/05/01 03:55:52;;;;;;;3.03;2.63;;;10.50;73.20;;;;;;5122157;28;20050;-59
2022/05/01 03:58:18;;;;;;;4.60;2.72;;;10.40;73.90;;;;;;5111314;28;20523;-59
2022/05/01 04:00:47;;;;;;;4.63;2.55;;;10.40;73.30;;;;;;5116257;28;20032;-58
2022/05/01 04:03:14;;;;;;;3.53;2.35;;;10.40;73.40;;;;;;5108935;28;20115;-59
2022/05/01 04:05:40;;;;;;;8.60;3.08;;;10.40;73.40;;;;;;5104349;28;20028;-58
2022/05/01 04:08:08;;;;;;;3.50;2.65;;;10.40;73.50;;;;;;5106208;28;20030;-58
2022/05/01 04:10:38;;;;;;;3.08;2.10;;;10.40;73.50;;;;;;5108302;28;20040;-59
2022/05/01 04:13:04;;;;;;;4.47;2.40;;;10.40;73.50;;;;;;5108806;28;20420;-61
2022/05/01 04:15:30;;;;;;;3.35;2.17;;;10.30;73.50;;;;;;5102084;27;20036;-60
2022/05/01 04:17:56;;;;;;;4.05;2.47;;;10.30;73.60;;;;;;5105679;27;20043;-60
2022/05/01 04:20:22;;;;;;;3.97;3.13;;;10.30;73.60;;;;;;5102673;28;20039;-60
2022/05/01 04:22:49;;;;;;;4.35;2.67;;;10.40;73.80;;;;;;5112626;28;20520;-60
2022/05/01 04:25:21;;;;;;;3.15;2.72;;;10.30;73.70;;;;;;5111083;28;20490;-60
2022/05/01 04:27:51;;;;;;;2.50;2.17;;;10.30;73.70;;;;;;5111402;28;20039;-60
2022/05/01 04:30:18;;;;;;;3.83;2.38;;;10.30;73.60;;;;;;5110245;28;20020;-60
2022/05/01 04:32:50;;;;;;;2.92;2.53;;;10.30;73.70;;;;;;5113557;28;20428;-60
2022/05/01 04:35:19;;;;;;;;;;;10.30;73.80;;;;;;5114283;27;20027;-61
2022/05/01 04:37:45;;;;;;;4.22;2.33;;;10.30;73.80;;;;;;5103132;28;19919;-60
2022/05/01 04:40:11;;;;;;;11.18;2.85;;;10.30;73.90;;;;;;5096048;27;20443;-61
2022/05/01 04:42:37;;;;;;;4.57;2.60;;;10.20;74.00;;;;;;5112346;28;20052;-61
2022/05/01 04:45:04;;;;;;;2.35;2.10;;;10.30;74.10;;;;;;5109950;28;20347;-61
2022/05/01 04:47:29;;;;;;;2.88;2.25;;;10.30;74.10;;;;;;5105315;28;20035;-61
2022/05/01 04:49:55;;;;;;;3.53;2.53;;;10.30;74.10;;;;;;5091012;28;20031;-60
2022/05/01 04:52:20;;;;;;;2.83;2.25;;;10.30;74.10;;;;;;5107334;28;20409;-60
2022/05/01 04:54:46;;;;;;;2.95;2.65;;;10.30;74.10;;;;;;5093682;28;20470;-60
2022/05/01 04:57:13;;;;;;;6.28;2.60;;;10.30;74.20;;;;;;5094573;28;20012;-60
2022/05/01 04:59:38;;;;;;;2.42;2.20;;;10.30;74.50;;;;;;5111552;28;20027;-60
2022/05/01 05:02:05;;;;;;;3.03;2.05;;;10.30;74.20;;;;;;5124205;27;20468;-60
2022/05/01 05:04:30;;;;;;;3.97;2.53;;;10.30;74.20;;;;;;5112241;27;20051;-60
2022/05/01 05:06:56;;;;;;;7.25;2.90;;;10.30;74.20;;;;;;5112449;28;20062;-61
2022/05/01 05:12:07;;;;;;;6.03;3.25;;;10.40;74.40;;;;;;5114142;27;20061;-60
2022/05/01 05:14:33;;;;;;;2.60;2.40;;;10.40;74.30;;;;;;5091922;28;20096;-61
2022/05/01 05:17:00;;;;;;;2.65;2.35;;;10.40;74.40;;;;;;5112954;28;20024;-61
2022/05/01 05:19:26;;;;;;;3.80;3.03;;;10.40;74.40;;;;;;5109346;27;20035;-60
2022/05/01 05:21:52;;;;;;;3.95;2.30;;;10.40;74.40;;;;;;5109553;28;20035;-59
2022/05/01 05:24:19;;;;;;;3.03;2.47;;;10.40;74.40;;;;;;5110781;28;20048;-58
2022/05/01 05:26:45;;;;;;;5.18;3.03;;;10.40;74.30;;;;;;5111296;28;20050;-58
2022/05/01 05:29:11;;;;;;;4.28;2.45;;;10.40;74.40;;;;;;5092511;28;20032;-61
2022/05/01 05:31:36;;;;;;;2.65;2.22;;;10.50;74.40;;;;;;5112263;28;20020;-61
2022/05/01 05:34:02;;;;;;;3.20;2.85;;;10.50;74.50;;;;;;5115916;27;20035;-61
2022/05/01 05:36:28;;;;;;;2.40;2.20;;;10.50;74.50;;;;;;5099104;28;20031;-61
2022/05/01 05:38:53;;;;;;;2.88;2.53;;;10.50;74.50;;;;;;5113512;27;20039;-61
2022/05/01 05:41:19;;;;;;;3.88;2.60;;;10.60;74.50;;;;;;5119616;27;20677;-61
2022/05/01 05:43:45;;;;;;;4.20;2.58;;;10.60;74.40;;;;;;5054692;28;20072;-61
2022/05/01 05:46:10;;;;;;;3.28;2.72;;;10.60;74.40;;;;;;5080340;28;20070;-60
2022/05/01 05:48:37;;;;;;;4.53;2.20;;;10.60;74.40;;;;;;5078962;28;20207;-59
2022/05/01 05:51:04;;;;;;;5.03;2.78;;;10.70;74.30;;;;;;5078592;28;20029;-59
2022/05/01 05:53:30;;;;;;;5.32;2.92;;;10.70;74.20;;;;;;5051024;28;20033;-59
2022/05/01 05:55:56;;;;;;;3.38;2.33;;;10.80;74.20;;;;;;5078681;28;20043;-60
2022/05/01 05:58:22;;;;;;;3.83;2.80;;;10.80;74.10;;;;;;5070417;28;20024;-61
2022/05/01 06:00:47;;;;;;;3.47;2.40;;;10.80;74.10;;;;;;5065094;28;20029;-61
2022/05/01 06:03:13;;;;;;;2.90;2.33;;;10.90;74.20;;;;;;5070028;28;20094;-61
2022/05/01 06:05:39;;;;;;;3.97;2.97;;;10.90;74.10;;;;;;5065833;28;20032;-60
2022/05/01 06:08:05;;;;;;;2.92;2.53;;;10.90;74.10;;;;;;5070390;28;20386;-58
2022/05/01 06:10:31;;;;;;;3.35;2.53;;;11.00;74.10;;;;;;5066692;28;20032;-60
2022/05/01 06:12:57;;;;;;;3.83;3.30;;;11.00;74.10;;;;;;5062202;28;20037;-59
2022/05/01 06:15:22;;;;;;;6.35;2.83;;;11.10;74.00;;;;;;5068353;28;20028;-59
2022/05/01 06:17:50;;;;;;;3.13;2.58;;;11.20;74.00;;;;;;5061248;28;20137;-58
2022/05/01 06:20:15;;;;;;;4.10;2.38;;;11.20;73.90;;;;;;5067943;28;20025;-59
2022/05/01 06:22:41;;;;;;;3.47;2.63;;;11.20;73.60;;;;;;5070464;28;20032;-58
2022/05/01 06:25:08;;;;;;;2.85;2.60;;;11.30;73.60;;;;;;5070570;28;20108;-58
2022/05/01 06:27:33;;;;;;;3.28;2.40;;;11.30;73.50;;;;;;5069496;28;20039;-59
2022/05/01 06:29:59;;;;;;;4.60;2.63;;;11.30;73.40;;;;;;5060324;28;20028;-59
2022/05/01 06:32:25;;;;;;;3.05;2.20;;;11.40;73.20;;;;;;5069814;28;20028;-58
2022/05/01 06:34:52;;;;;;;3.63;2.22;;;11.40;73.90;;;;;;5063798;28;20163;-58
2022/05/01 06:37:18;;;;;;;3.00;2.25;;;11.40;73.20;;;;;;5064567;28;20438;-59
2022/05/01 06:39:43;;;;;;;3.10;2.60;;;11.40;73.10;;;;;;5059813;28;20032;-61
2022/05/01 06:42:10;;;;;;;7.53;2.85;;;11.50;73.10;;;;;;5072052;28;20044;-61
2022/05/01 06:44:36;;;;;;;4.15;3.15;;;11.50;73.00;;;;;;5078761;28;20495;-60
2022/05/01 06:47:02;;;;;;;2.97;2.78;;;11.60;72.90;;;;;;5105826;28;20055;-61
2022/05/01 06:49:27;;;;;;;3.95;2.85;;;11.60;72.80;;;;;;5085148;28;20062;-58
2022/05/01 06:51:53;;;;;;;4.22;3.35;;;11.60;72.60;;;;;;5105934;27;20046;-59
2022/05/01 06:54:19;;;;;;;3.05;2.22;;;11.70;72.50;;;;;;5076627;27;20044;-61
2022/05/01 06:56:44;;;;;;;2.53;2.08;;;11.70;72.30;;;;;;5104225;28;20389;-61
2022/05/01 06:59:11;;;;;;;5.13;2.88;;;11.70;72.30;;;;;;5098915;27;20481;-59
2022/05/01 07:01:36;;;;;;;4.60;2.72;;;11.70;72.30;;;;;;5102936;27;20036;-59
2022/05/01 07:04:02;;;;;;;4.70;2.38;;;11.80;72.30;;;;;;5099909;27;20047;-59
2022/05/01 07:06:28;;;;;;;3.33;2.75;;;11.80;72.20;;;;;;5105404;27;20139;-60
2022/05/01 07:08:53;;;;;;;3.55;2.80;;;11.90;71.90;;;;;;5108714;27;20378;-58
2022/05/01 07:11:19;;;;;;;4.63;3.47;;;12.00;71.90;;;;;;5102508;27;20449;-58
2022/05/01 07:13:45;;;;;;;3.95;3.17;;;12.00;71.80;;;;;;5114458;27;20027;-59
2022/05/01 07:16:10;;;;;;;4.78;2.70;;;12.00;71.80;;;;;;5080093;28;20120;-61
2022/05/01 07:18:36;;;;;;;4.45;3.22;;;12.10;71.70;;;;;;5098112;27;20024;-58
2022/05/01 07:21:02;;;;;;;2.63;2.28;;;12.10;71.50;;;;;;5095255;28;20059;-60
2022/05/01 07:23:28;;;;;;;6.35;3.15;;;12.10;71.60;;;;;;5097489;28;20066;-59
2022/05/01 07:25:54;;;;;;;6.60;2.75;;;12.10;71.50;;;;;;5093459;27;20040;-59
2022/05/01 07:28:19;;;;;;;3.53;2.78;;;12.10;71.50;;;;;;5098662;28;20486;-58
2022/05/01 07:30:45;;;;;;;5.18;3.08;;;12.20;71.30;;;;;;5099760;28;20035;-59
2022/05/01 07:33:11;;;;;;;11.25;4.35;;;12.20;71.30;;;;;;5103687;27;20039;-60
2022/05/01 07:35:37;;;;;;;3.90;3.30;;;12.20;71.10;;;;;;5094968;27;20103;-60
2022/05/01 07:38:03;;;;;;;3.47;2.53;;;12.30;71.00;;;;;;5089435;28;20455;-59
2022/05/01 07:40:29;;;;;;;5.43;2.92;;;12.30;70.80;;;;;;5059101;28;20496;-59
2022/05/01 07:42:55;;;;;;;1.85;1.70;;;12.40;70.50;;;;;;5096767;28;20123;-59
2022/05/01 07:45:21;;;;;;;3.80;2.35;;;12.50;70.40;;;;;;5114677;27;20386;-58
2022/05/01 07:47:46;;;;;;;3.58;3.28;;;12.60;70.30;;;;;;5115274;27;20023;-59
2022/05/01 07:50:13;;;;;;;4.05;2.38;;;12.60;69.10;;;;;;5117609;27;20035;-59
2022/05/01 07:52:39;;;;;;;2.60;2.40;;;12.70;69.40;;;;;;5101960;28;20024;-58
2022/05/01 07:55:06;;;;;;;6.78;3.28;;;12.70;69.40;;;;;;5095250;28;20378;-61
2022/05/01 07:57:32;;;;;;;2.28;1.98;;;12.80;69.10;;;;;;5121722;28;20107;-59
2022/05/01 07:59:57;;;;;;;2.60;2.38;;;12.90;69.00;;;;;;5086610;28;20073;-59
2022/05/01 08:02:23;;;;;;;4.68;2.83;;;13.00;68.70;;;;;;5096129;28;20401;-60
2022/05/01 08:04:49;;;;;;;4.68;2.38;;;13.00;68.20;;;;;;5119729;28;20114;-61
2022/05/01 08:07:17;;;;;;;4.07;2.15;;;12.90;68.30;;;;;;5100756;28;20104;-60
2022/05/01 08:09:43;;;;;;;5.10;2.60;;;13.00;68.10;;;;;;5099396;28;20042;-59
2022/05/01 08:12:09;;;;;;;3.38;2.38;;;13.00;67.90;;;;;;5109313;28;20103;-59
2022/05/01 08:14:35;;;;;;;4.07;3.15;;;13.00;67.90;;;;;;5093769;28;20027;-59
2022/05/01 08:17:00;;;;;;;1.80;1.60;;;13.00;68.60;;;;;;5094567;28;20032;-59
2022/05/01 08:22:10;;;;;;;3.40;2.50;;;13.20;68.00;;;;;;5098342;28;20047;-62
2022/05/01 08:24:36;;;;;;;4.15;3.38;;;13.30;67.70;;;;;;5099900;28;20028;-62
2022/05/01 08:27:05;;;;;;;2.38;2.10;;;13.40;67.30;;;;;;5095683;28;20139;-61
2022/05/01 08:29:33;;;;;;;4.72;3.03;;;13.40;67.20;;;;;;5101974;28;20026;-61
2022/05/01 08:32:00;;;;;;;3.50;2.75;;;13.50;66.90;;;;;;5095664;28;20474;-61
2022/05/01 08:34:26;;;;;;;3.33;2.97;;;13.60;67.00;;;;;;5113058;28;20100;-61
2022/05/01 08:36:51;;;;;;;2.33;1.85;;;13.60;66.80;;;;;;5096614;28;20032;-61
2022/05/01 08:39:17;;;;;;;2.92;2.47;;;13.70;66.50;;;;;;5109425;28;20039;-62
2022/05/01 08:41:43;;;;;;;2.47;1.95;;;13.80;66.50;;;;;;5096575;28;20488;-61
2022/05/01 08:44:13;;;;;;;7.28;2.63;;;13.90;66.40;;;;;;5058775;28;20414;-59
2022/05/01 08:46:51;;;;;;;4.90;2.60;;;14.00;65.60;;;;;;5054450;28;20158;-59
2022/05/01 08:49:19;;;;;;;4.18;2.78;;;14.10;65.30;;;;;;5052321;28;20025;-59
2022/05/01 08:51:46;;;;;;;4.65;2.83;;;14.20;64.80;;;;;;5048694;28;20697;-61
2022/05/01 08:54:15;;;;;;;6.20;3.30;;;14.20;64.80;;;;;;5061099;28;20048;-61
2022/05/01 08:56:43;;;;;;;3.90;3.08;;;14.20;64.70;;;;;;5053531;28;20501;-61
2022/05/01 08:59:14;;;;;;;4.22;2.58;;;14.30;64.60;;;;;;5052797;28;20506;-61
2022/05/01 09:01:42;;;;;;;2.83;2.20;;;14.30;64.60;;;;;;5050734;28;20052;-61
2022/05/01 09:04:09;;;;;;;5.85;3.10;;;14.30;64.50;;;;;;5053232;28;20128;-61
2022/05/01 09:06:37;;;;;;;3.35;2.70;;;14.30;64.30;;;;;;5074003;28;20040;-60
2022/05/01 09:09:08;;;;;;;3.00;2.70;;;14.30;62.50;;;;;;5061343;28;20462;-62
2022/05/01 09:14:24;;;;;;;5.55;3.22;;;14.20;62.80;;;;;;5063197;28;20044;-61
2022/05/01 09:17:13;;;;;;;3.63;2.55;;;14.20;62.30;;;;;;5062325;28;20032;-62
2022/05/01 09:19:44;;;;;;;6.50;2.38;;;14.20;62.70;;;;;;5065165;28;20036;-62
2022/05/01 09:22:11;;;;;;;3.63;2.35;;;14.20;62.70;;;;;;5072011;28;20037;-61
2022/05/01 09:24:37;;;;;;;2.58;2.22;;;14.20;62.80;;;;;;5057843;28;20381;-61
2022/05/01 09:27:03;;;;;;;4.82;2.65;;;14.20;62.60;;;;;;5074531;28;20055;-61
2022/05/01 09:29:32;;;;;;;3.67;2.45;;;14.20;62.40;;;;;;5058802;28;20024;-61
2022/05/01 09:32:00;;;;;;;5.88;3.53;;;14.20;62.20;;;;;;5056476;28;20024;-59
2022/05/01 09:34:35;;;;;;;4.07;2.65;;;14.20;62.30;;;;;;5065555;28;20451;-59
2022/05/01 09:37:03;;;;;;;7.22;2.65;;;14.20;62.50;;;;;;5066358;28;20024;-59
2022/05/01 09:39:32;;;;;;;5.35;3.00;;;14.20;62.10;;;;;;5054739;28;20037;-59
2022/05/01 09:42:19;;;;;;;4.63;3.00;;;14.20;61.90;;;;;;5069662;28;20051;-60
2022/05/01 09:45:06;;;;;;;6.63;2.65;;;14.20;62.10;;;;;;5099935;27;20039;-59
2022/05/01 09:47:36;;;;;;;3.20;2.42;;;14.10;62.20;;;;;;5102650;27;20339;-59
2022/05/01 09:50:04;;;;;;;1.48;1.35;;;14.10;62.00;;;;;;5103306;27;20028;-59
2022/05/01 09:52:58;;;;;;;2.20;1.92;;;14.10;62.00;;;;;;5082341;27;20109;-59
2022/05/01 09:55:25;;;;;;;2.40;1.98;;;14.10;61.40;;;;;;5109978;27;20382;-59
2022/05/01 09:58:12;;;;;;;3.85;2.67;;;14.10;61.60;;;;;;5105028;28;20032;-59
2022/05/01 10:00:45;;;;;;;5.15;2.72;;;14.10;61.50;;;;;;5101797;27;20376;-59
2022/05/01 10:03:25;;;;;;;4.22;2.08;;;14.00;61.60;;;;;;5107089;27;20024;-59
2022/05/01 10:05:53;;;;;;;4.80;2.25;;;14.10;61.50;;;;;;5116261;27;20392;-59
2022/05/01 10:08:19;;;;;;;1.80;1.70;;;14.10;61.60;;;;;;5096536;28;20074;-59
2022/05/01 10:10:47;;;;;;;2.53;2.10;;;14.10;61.00;;;;;;5108890;27;20481;-59
2022/05/01 10:13:13;;;;;;;3.50;2.75;;;14.10;61.00;;;;;;5086374;27;20420;-59
2022/05/01 10:15:40;;;;;;;2.08;1.88;;;14.10;60.90;;;;;;5116614;27;20077;-59
2022/05/01 10:18:06;;;;;;;2.85;1.85;;;14.10;60.60;;;;;;5106377;27;20151;-59
2022/05/01 10:20:34;;;;;;;1.98;1.63;;;14.20;60.40;;;;;;5111755;27;20043;-59
2022/05/01 10:23:03;;;;;;;2.38;2.17;;;14.20;60.10;;;;;;5109865;27;20036;-59
2022/05/01 10:25:32;;;;;;;3.08;2.75;;;14.20;60.00;;;;;;5080357;27;20034;-59
2022/05/01 10:28:22;;;;;;;3.47;2.22;;;14.20;60.10;;;;;;5112961;27;20478;-58
2022/05/01 10:34:02;;;;;;;3.00;2.67;;;14.20;59.80;;;;;;5109163;28;20504;-59
2022/05/01 10:36:27;;;;;;;2.75;1.98;;;14.20;60.00;;;;;;5060918;27;20035;-59
2022/05/01 10:39:10;;;;;;;1.92;1.83;;;14.20;60.00;;;;;;5109935;28;20084;-59
2022/05/01 10:41:43;;;;;;;3.42;2.33;;;14.30;59.80;;;;;;5108358;27;20053;-59
2022/05/01 10:44:33;;;;;;;2.28;1.80;;;14.40;59.10;;;;;;5093048;28;20393;-59
2022/05/01 10:47:13;;;;;;;2.15;1.80;;;14.40;58.90;;;;;;5110096;27;20024;-59
2022/05/01 10:49:45;;;;;;;2.35;1.92;;;14.50;58.50;;;;;;5110244;28;20110;-59
2022/05/01 10:52:15;;;;;;;1.98;1.60;;;14.50;57.60;;;;;;5101297;27;20072;-59
2022/05/01 10:54:49;;;;;;;2.13;1.52;;;14.60;57.60;;;;;;5101305;27;20043;-59
2022/05/01 10:57:17;;;;;;;1.48;1.38;;;14.70;57.30;;;;;;5118846;27;20069;-59
2022/05/01 10:59:47;;;;;;;5.35;1.67;;;14.80;54.30;;;;;;5094582;28;20024;-59
2022/05/01 11:02:28;;;;;;;1.67;1.58;;;14.70;53.80;;;;;;5118353;27;20113;-60
2022/05/01 11:04:56;;;;;;;1.95;1.65;;;14.70;52.90;;;;;;5093109;28;20031;-59
2022/05/01 11:07:24;;;;;;;2.00;1.55;;;14.80;52.80;;;;;;5108131;27;20450;-61
2022/05/01 11:09:50;;;;;;;2.83;2.10;;;14.80;51.80;;;;;;5096399;28;20027;-62
2022/05/01 11:12:21;;;;;;;3.38;2.00;;;14.80;51.40;;;;;;5096849;27;20057;-62
2022/05/01 11:14:53;;;;;;;1.55;1.35;;;14.80;52.10;;;;;;5097012;28;20020;-61
2022/05/01 11:17:42;;;;;;;1.67;1.48;;;14.80;52.80;;;;;;5102413;27;20386;-62
2022/05/01 11:20:29;;;;;;;1.75;1.63;;;14.90;52.90;;;;;;5093608;28;20043;-61
2022/05/01 11:22:55;;;;;;;2.03;1.83;;;14.90;52.80;;;;;;5083668;28;20027;-62
2022/05/01 11:25:32;;;;;;;1.58;1.13;;;14.90;52.80;;;;;;5092424;28;20569;-62
2022/05/01 11:27:58;;;;;;;3.22;1.63;;;14.90;53.00;;;;;;5098635;28;20032;-61
2022/05/01 11:30:27;;;;;;;2.00;1.45;;;15.00;53.00;;;;;;5102070;27;20103;-62
2022/05/01 11:33:08;;;;;;;2.10;1.50;;;15.20;52.50;;;;;;5090013;27;20020;-59
2022/05/01 11:36:00;;;;;;;1.27;1.15;;;15.30;52.00;;;;;;5099472;27;20546;-62
2022/05/01 11:38:54;;;;;;;1.83;1.30;;;15.40;50.90;;;;;;5097654;27;20039;-62
2022/05/01 11:41:45;;;;;;;2.55;1.67;;;15.50;50.70;;;;;;5088761;27;20047;-62
2022/05/01 11:44:22;;;;;;;1.80;1.63;;;15.60;49.50;;;;;;5100269;27;20347;-59
2022/05/01 11:46:51;;;;;;;1.73;1.50;;;15.70;49.80;;;;;;5114845;27;20053;-62
2022/05/01 11:49:18;;;;;;;1.92;1.70;;;15.70;49.80;;;;;;5123534;27;20087;-61
2022/05/01 11:51:45;;;;;;;3.15;2.03;;;15.70;47.60;;;;;;5112441;27;20684;-62
2022/05/01 11:54:13;;;;;;;2.03;1.58;;;15.70;48.20;;;;;;5108495;27;20031;-62
2022/05/01 12:02:26;;;;;;;2.20;2.00;;;16.00;47.90;;;;;;5095923;28;20092;-62
2022/05/01 12:04:58;;;;;;;2.83;1.80;;;16.10;47.10;;;;;;5106699;28;20067;-62
2022/05/01 12:07:24;;;;;;;1.95;1.65;;;16.10;46.30;;;;;;5103934;28;20072;-62
2022/05/01 12:09:53;;;;;;;2.67;1.38;;;16.20;46.50;;;;;;5114859;28;20035;-61
2022/05/01 12:12:20;;;;;;;2.22;1.33;;;16.20;47.20;;;;;;5119966;28;20473;-61
2022/05/01 12:14:47;;;;;;;5.25;2.63;;;16.20;47.70;;;;;;5118865;28;20106;-62
2022/05/01 12:17:15;;;;;;;2.15;1.77;;;16.30;46.70;;;;;;5126369;28;20039;-61
2022/05/01 12:19:43;;;;;;;3.08;2.00;;;16.40;45.60;;;;;;5124763;28;20485;-62
2022/05/01 12:22:12;;;;;;;2.25;1.65;;;16.50;45.20;;;;;;5122677;28;20031;-62
2022/05/01 12:24:38;;;;;;;2.10;1.60;;;16.60;46.00;;;;;;5122238;28;20126;-62
2022/05/01 12:27:08;;;;;;;1.67;1.52;;;16.70;46.20;;;;;;5126261;28;20027;-62
2022/05/01 12:29:36;;;;;;;1.63;1.48;;;16.80;46.70;;;;;;5125314;28;20065;-62
2022/05/01 12:32:06;;;;;;;2.38;1.45;;;16.90;46.00;;;;;;5126675;28;20368;-62
2022/05/01 12:34:38;;;;;;;2.22;1.33;;;16.90;44.90;;;;;;5122143;28;20027;-62
2022/05/01 12:37:05;;;;;;;;;;;16.80;46.00;;;;;;5121860;27;20507;-61
2022/05/01 12:39:31;;;;;;;3.08;2.33;;;16.90;45.20;;;;;;5109635;27;20370;-62
2022/05/01 12:45:20;;;;;;;1.70;1.60;;;17.10;45.00;;;;;;5126413;27;20511;-62
2022/05/01 12:47:51;;;;;;;1.45;1.35;;;17.00;44.30;;;;;;5132550;27;20076;-59
2022/05/01 12:50:19;;;;;;;1.85;1.65;;;17.00;44.80;;;;;;5130833;27;20023;-59
2022/05/01 12:52:57;;;;;;;3.17;1.60;;;16.80;44.90;;;;;;5111564;27;20456;-59
2022/05/01 12:55:30;;;;;;;1.83;1.40;;;16.70;45.50;;;;;;5124740;27;20155;-59
2022/05/01 12:58:00;;;;;;;1.95;1.40;;;16.70;45.90;;;;;;5129477;27;20094;-59
2022/05/01 13:00:35;;;;;;;2.45;1.85;;;16.70;45.80;;;;;;5119220;27;20035;-62
2022/05/01 13:03:28;;;;;;;2.13;1.90;;;16.60;46.00;;;;;;5119600;27;21024;-62
2022/05/01 13:05:58;;;;;;;4.30;2.03;;;16.60;46.10;;;;;;5115403;27;20379;-59
2022/05/01 13:08:25;;;;;;;1.55;1.45;;;16.60;46.20;;;;;;5126048;27;20454;-59
2022/05/01 13:11:10;;;;;;;2.65;1.80;;;16.50;45.80;;;;;;5117655;27;20023;-59
2022/05/01 13:14:01;;;;;;;1.95;1.75;;;16.50;45.70;;;;;;5119920;27;20676;-60
2022/05/01 13:16:30;;;;;;;2.17;1.67;;;16.40;46.00;;;;;;5121268;27;20323;-59
2022/05/01 13:19:00;;;;;;;4.25;1.20;;;16.30;46.40;;;;;;5117648;27;20027;-58
2022/05/01 13:21:31;;;;;;;2.55;1.30;;;16.30;46.80;;;;;;5116658;27;20031;-59
2022/05/01 13:24:29;;;;;;;1.40;1.30;;;16.40;46.80;;;;;;5120716;27;20031;-60
2022/05/01 13:26:57;;;;;;;4.18;2.03;;;16.30;46.30;;;;;;5104220;27;20024;-61
2022/05/01 13:29:23;;;;;;;2.25;1.85;;;16.40;46.90;;;;;;5101012;27;20035;-59
2022/05/01 13:31:49;;;;;;;3.15;2.00;;;16.40;46.90;;;;;;5117976;27;20027;-59